Terminal Aerodrome Forecast
Issued by NWS Charleston, WV

Current Version | Previous Version | Text Only | Print | Product List | Glossary Off
Versions: 1 2 3 4 5 6 7 8 9 10 11 12 13 14 15 16 17 18 19 20 21 22 23 24 25 26 27

000
FTUS41 KRLX 180900 AAA
TAFPKB
TAF AMD
KPKB 180911Z 1809/1906 27008KT P6SM BKN035 OVC050
     FM181200 28007KT P6SM OVC023
     FM181500 28010G17KT P6SM BKN020
     FM190200 30007KT P6SM BKN014=

USA.gov is the U.S. government's official web portal to all federal, state and local government web resources and services.